sensor_id;sensor_type;location;lat;lon;timestamp;pressure;altitude;pressure_sealevel;temperature;humidity
46412;BME280;32113;42.012;24.870;2024-02-14T00:00:44;98596.75;;;9.62;60.97
46412;BME280;32113;42.012;24.870;2024-02-14T00:03:09;98593.16;;;9.73;61.03
46412;BME280;32113;42.012;24.870;2024-02-14T00:05:35;98588.94;;;9.69;59.93
46412;BME280;32113;42.012;24.870;2024-02-14T00:08:01;98605.09;;;9.75;60.24
46412;BME280;32113;42.012;24.870;2024-02-14T00:10:26;98593.94;;;9.80;60.29
46412;BME280;32113;42.012;24.870;2024-02-14T00:12:52;98593.75;;;9.91;59.94
46412;BME280;32113;42.012;24.870;2024-02-14T00:15:17;98595.53;;;9.86;59.13
46412;BME280;32113;42.012;24.870;2024-02-14T00:17:43;98597.97;;;9.95;59.38
46412;BME280;32113;42.012;24.870;2024-02-14T00:20:09;98600.66;;;9.86;58.46
46412;BME280;32113;42.012;24.870;2024-02-14T00:22:37;98599.19;;;9.69;58.88
46412;BME280;32113;42.012;24.870;2024-02-14T00:25:03;98596.56;;;9.72;59.21
46412;BME280;32113;42.012;24.870;2024-02-14T00:27:29;98600.84;;;9.73;59.33
46412;BME280;32113;42.012;24.870;2024-02-14T00:29:55;98605.97;;;9.75;59.20
46412;BME280;32113;42.012;24.870;2024-02-14T00:32:21;98600.75;;;9.81;59.34
46412;BME280;32113;42.012;24.870;2024-02-14T00:34:47;98601.50;;;9.86;59.04
46412;BME280;32113;42.012;24.870;2024-02-14T00:37:12;98599.19;;;9.69;59.22
46412;BME280;32113;42.012;24.870;2024-02-14T00:39:38;98593.22;;;9.69;59.58
46412;BME280;32113;42.012;24.870;2024-02-14T00:42:04;98598.28;;;9.73;59.22
46412;BME280;32113;42.012;24.870;2024-02-14T00:44:29;98601.69;;;9.72;58.80
46412;BME280;32113;42.012;24.870;2024-02-14T00:46:58;98597.41;;;9.76;58.98
46412;BME280;32113;42.012;24.870;2024-02-14T00:49:25;98598.16;;;9.83;58.68
46412;BME280;32113;42.012;24.870;2024-02-14T00:51:51;98600.84;;;9.73;59.25
46412;BME280;32113;42.012;24.870;2024-02-14T00:54:16;98593.06;;;9.80;59.19
46412;BME280;32113;42.012;24.870;2024-02-14T00:56:41;98607.56;;;9.81;59.02
46412;BME280;32113;42.012;24.870;2024-02-14T00:59:07;98608.31;;;9.89;59.81
46412;BME280;32113;42.012;24.870;2024-02-14T01:01:33;98616.13;;;9.80;60.43
46412;BME280;32113;42.012;24.870;2024-02-14T01:03:58;98611.91;;;9.77;61.33
46412;BME280;32113;42.012;24.870;2024-02-14T01:06:24;98615.34;;;9.76;60.28
46412;BME280;32113;42.012;24.870;2024-02-14T01:08:50;98612.88;;;9.68;61.33
46412;BME280;32113;42.012;24.870;2024-02-14T01:11:15;98618.25;;;9.50;61.55
46412;BME280;32113;42.012;24.870;2024-02-14T01:13:41;98624.19;;;9.50;62.99
46412;BME280;32113;42.012;24.870;2024-02-14T01:16:06;98626.03;;;9.40;63.00
46412;BME280;32113;42.012;24.870;2024-02-14T01:18:33;98632.97;;;9.32;65.20
46412;BME280;32113;42.012;24.870;2024-02-14T01:20:58;98634.66;;;9.33;64.13
46412;BME280;32113;42.012;24.870;2024-02-14T01:23:27;98635.63;;;9.23;64.70
46412;BME280;32113;42.012;24.870;2024-02-14T01:25:52;98629.63;;;9.27;65.46
46412;BME280;32113;42.012;24.870;2024-02-14T01:28:20;98625.41;;;9.19;65.35
46412;BME280;32113;42.012;24.870;2024-02-14T01:30:45;98645.00;;;9.22;65.37
46412;BME280;32113;42.012;24.870;2024-02-14T01:33:10;98636.34;;;9.34;65.76
46412;BME280;32113;42.012;24.870;2024-02-14T01:35:36;98636.31;;;9.39;64.45
46412;BME280;32113;42.012;24.870;2024-02-14T01:38:01;98630.28;;;9.44;64.61
46412;BME280;32113;42.012;24.870;2024-02-14T01:40:28;98630.19;;;9.49;64.13
46412;BME280;32113;42.012;24.870;2024-02-14T01:42:54;98631.94;;;9.47;63.11
46412;BME280;32113;42.012;24.870;2024-02-14T01:45:20;98633.50;;;9.57;62.86
46412;BME280;32113;42.012;24.870;2024-02-14T01:47:46;98627.63;;;9.51;61.87
46412;BME280;32113;42.012;24.870;2024-02-14T01:50:12;98630.19;;;9.49;63.14
46412;BME280;32113;42.012;24.870;2024-02-14T01:52:38;98630.19;;;9.51;62.44
46412;BME280;32113;42.012;24.870;2024-02-14T01:55:05;98622.41;;;9.55;61.87
46412;BME280;32113;42.012;24.870;2024-02-14T01:57:33;98624.38;;;9.36;60.87
46412;BME280;32113;42.012;24.870;2024-02-14T02:00:00;98624.31;;;9.42;60.88
46412;BME280;32113;42.012;24.870;2024-02-14T02:02:29;98623.38;;;9.48;61.03
46412;BME280;32113;42.012;24.870;2024-02-14T02:04:55;98621.59;;;9.53;59.28
46412;BME280;32113;42.012;24.870;2024-02-14T02:07:20;98622.38;;;9.60;59.53
46412;BME280;32113;42.012;24.870;2024-02-14T02:09:46;98628.31;;;9.60;58.90
46412;BME280;32113;42.012;24.870;2024-02-14T02:12:11;98629.31;;;9.52;58.16
46412;BME280;32113;42.012;24.870;2024-02-14T02:14:37;98631.00;;;9.51;58.30
46412;BME280;32113;42.012;24.870;2024-02-14T02:17:02;98629.28;;;9.55;58.65
46412;BME280;32113;42.012;24.870;2024-02-14T02:19:33;98629.16;;;9.66;58.33
46412;BME280;32113;42.012;24.870;2024-02-14T02:21:59;98625.69;;;9.68;58.37
46412;BME280;32113;42.012;24.870;2024-02-14T02:24:24;98634.97;;;9.77;58.11
46412;BME280;32113;42.012;24.870;2024-02-14T02:26:50;98629.81;;;9.79;58.04
46412;BME280;32113;42.012;24.870;2024-02-14T02:29:15;98642.72;;;9.71;56.90
46412;BME280;32113;42.012;24.870;2024-02-14T02:31:41;98648.53;;;9.82;57.24
46412;BME280;32113;42.012;24.870;2024-02-14T02:34:07;98654.41;;;9.92;57.41
46412;BME280;32113;42.012;24.870;2024-02-14T02:36:35;98652.63;;;9.96;57.29
46412;BME280;32113;42.012;24.870;2024-02-14T02:39:03;98652.41;;;10.10;57.87
46412;BME280;32113;42.012;24.870;2024-02-14T02:41:30;98654.28;;;10.00;57.95
46412;BME280;32113;42.012;24.870;2024-02-14T02:43:57;98666.88;;;10.14;58.27
46412;BME280;32113;42.012;24.870;2024-02-14T02:46:22;98677.97;;;10.18;58.59
46412;BME280;32113;42.012;24.870;2024-02-14T02:48:47;98677.47;;;9.92;58.79
46412;BME280;32113;42.012;24.870;2024-02-14T02:51:16;98685.25;;;9.84;59.97
46412;BME280;32113;42.012;24.870;2024-02-14T02:53:42;98691.31;;;9.79;60.78
46412;BME280;32113;42.012;24.870;2024-02-14T02:56:07;98684.53;;;9.73;61.23
46412;BME280;32113;42.012;24.870;2024-02-14T02:58:33;98694.00;;;9.68;62.49
46412;BME280;32113;42.012;24.870;2024-02-14T03:00:59;98697.47;;;9.64;62.12
46412;BME280;32113;42.012;24.870;2024-02-14T03:03:24;98701.56;;;9.77;63.42
46412;BME280;32113;42.012;24.870;2024-02-14T03:05:52;98705.03;;;9.73;63.43
46412;BME280;32113;42.012;24.870;2024-02-14T03:08:19;98713.56;;;9.75;63.44
46412;BME280;32113;42.012;24.870;2024-02-14T03:10:44;98707.44;;;9.85;63.96
46412;BME280;32113;42.012;24.870;2024-02-14T03:13:11;98717.63;;;9.90;63.44
46412;BME280;32113;42.012;24.870;2024-02-14T03:15:39;98712.84;;;9.62;63.83
46412;BME280;32113;42.012;24.870;2024-02-14T03:18:05;98716.56;;;9.35;64.74
46412;BME280;32113;42.012;24.870;2024-02-14T03:20:35;98709.78;;;9.30;64.63
46412;BME280;32113;42.012;24.870;2024-02-14T03:23:01;98712.50;;;9.16;64.43
46412;BME280;32113;42.012;24.870;2024-02-14T03:25:28;98707.44;;;9.10;65.46
46412;BME280;32113;42.012;24.870;2024-02-14T03:27:54;98712.63;;;8.99;66.25
46412;BME280;32113;42.012;24.870;2024-02-14T03:30:20;98713.63;;;8.86;65.57
46412;BME280;32113;42.012;24.870;2024-02-14T03:32:46;98727.25;;;8.86;66.82
46412;BME280;32113;42.012;24.870;2024-02-14T03:35:14;98723.88;;;8.84;66.87
46412;BME280;32113;42.012;24.870;2024-02-14T03:37:43;98730.75;;;8.79;68.17
46412;BME280;32113;42.012;24.870;2024-02-14T03:40:12;98730.63;;;8.91;68.17
46412;BME280;32113;42.012;24.870;2024-02-14T03:42:38;98728.06;;;8.90;67.39
46412;BME280;32113;42.012;24.870;2024-02-14T03:45:06;98739.16;;;8.93;66.85
46412;BME280;32113;42.012;24.870;2024-02-14T03:47:32;98733.88;;;9.09;67.65
46412;BME280;32113;42.012;24.870;2024-02-14T03:50:01;98739.03;;;9.06;65.50
46412;BME280;32113;42.012;24.870;2024-02-14T03:52:29;98738.22;;;9.04;64.87
46412;BME280;32113;42.012;24.870;2024-02-14T03:54:57;98743.38;;;8.98;65.75
46412;BME280;32113;42.012;24.870;2024-02-14T03:57:23;98750.13;;;9.05;65.96
46412;BME280;32113;42.012;24.870;2024-02-14T03:59:50;98762.88;;;9.11;66.69
46412;BME280;32113;42.012;24.870;2024-02-14T04:02:17;98756.91;;;9.11;66.24
46412;BME280;32113;42.012;24.870;2024-02-14T04:04:44;98751.63;;;9.28;66.53
46412;BME280;32113;42.012;24.870;2024-02-14T04:07:12;98760.13;;;9.33;65.58
46412;BME280;32113;42.012;24.870;2024-02-14T04:09:37;98758.41;;;9.35;65.78
46412;BME280;32113;42.012;24.870;2024-02-14T04:12:03;98755.84;;;9.33;65.73
46412;BME280;32113;42.012;24.870;2024-02-14T04:14:29;98760.13;;;9.33;65.70
46412;BME280;32113;42.012;24.870;2024-02-14T04:16:54;98766.09;;;9.35;65.53
46412;BME280;32113;42.012;24.870;2024-02-14T04:19:20;98770.38;;;9.31;65.10
46412;BME280;32113;42.012;24.870;2024-02-14T04:21:46;98767.72;;;9.39;64.63
46412;BME280;32113;42.012;24.870;2024-02-14T04:24:11;98769.47;;;9.34;64.63
46412;BME280;32113;42.012;24.870;2024-02-14T04:26:37;98765.31;;;9.24;64.55
46412;BME280;32113;42.012;24.870;2024-02-14T04:29:02;98774.75;;;9.18;65.96
46412;BME280;32113;42.012;24.870;2024-02-14T04:31:28;98771.31;;;9.23;66.31
46412;BME280;32113;42.012;24.870;2024-02-14T04:33:57;98771.31;;;9.19;65.45
46412;BME280;32113;42.012;24.870;2024-02-14T04:36:23;98777.31;;;9.22;64.30
46412;BME280;32113;42.012;24.870;2024-02-14T04:38:48;98775.63;;;9.17;65.25
46412;BME280;32113;42.012;24.870;2024-02-14T04:41:15;98774.69;;;9.25;65.66
46412;BME280;32113;42.012;24.870;2024-02-14T04:43:40;98764.44;;;9.28;64.16
46412;BME280;32113;42.012;24.870;2024-02-14T04:46:06;98780.59;;;9.33;65.06
46412;BME280;32113;42.012;24.870;2024-02-14T04:48:36;98782.28;;;9.36;63.43
46412;BME280;32113;42.012;24.870;2024-02-14T04:51:03;98781.47;;;9.29;63.68
46412;BME280;32113;42.012;24.870;2024-02-14T04:53:29;98789.97;;;9.34;63.63
46412;BME280;32113;42.012;24.870;2024-02-14T04:55:54;98787.47;;;9.29;62.64
46412;BME280;32113;42.012;24.870;2024-02-14T04:58:20;98784.91;;;9.28;62.57
46412;BME280;32113;42.012;24.870;2024-02-14T05:00:46;98795.16;;;9.28;63.21
46412;BME280;32113;42.012;24.870;2024-02-14T05:03:11;98796.84;;;9.27;62.35
46412;BME280;32113;42.012;24.870;2024-02-14T05:05:37;98804.59;;;9.21;62.77
46412;BME280;32113;42.012;24.870;2024-02-14T05:08:03;98801.25;;;9.13;64.67
46412;BME280;32113;42.012;24.870;2024-02-14T05:10:29;98799.53;;;9.15;64.88
46412;BME280;32113;42.012;24.870;2024-02-14T05:12:54;98803.78;;;9.17;63.18
46412;BME280;32113;42.012;24.870;2024-02-14T05:15:20;98802.16;;;9.07;63.68
46412;BME280;32113;42.012;24.870;2024-02-14T05:17:45;98799.56;;;9.09;64.60
46412;BME280;32113;42.012;24.870;2024-02-14T05:20:12;98802.19;;;8.99;64.62
46412;BME280;32113;42.012;24.870;2024-02-14T05:22:37;98809.06;;;8.99;64.01
46412;BME280;32113;42.012;24.870;2024-02-14T05:25:04;98821.91;;;8.89;63.58
46412;BME280;32113;42.012;24.870;2024-02-14T05:27:30;98822.78;;;8.88;65.04
46412;BME280;32113;42.012;24.870;2024-02-14T05:29:55;98816.81;;;8.88;63.72
46412;BME280;32113;42.012;24.870;2024-02-14T05:32:21;98815.03;;;8.96;63.63
46412;BME280;32113;42.012;24.870;2024-02-14T05:34:46;98819.16;;;9.16;63.53
46412;BME280;32113;42.012;24.870;2024-02-14T05:37:12;98815.78;;;9.11;63.11
46412;BME280;32113;42.012;24.870;2024-02-14T05:39:39;98825.97;;;9.17;63.24
46412;BME280;32113;42.012;24.870;2024-02-14T05:42:04;98823.38;;;9.20;62.09
46412;BME280;32113;42.012;24.870;2024-02-14T05:44:30;98827.63;;;9.21;61.75
46412;BME280;32113;42.012;24.870;2024-02-14T05:46:56;98827.63;;;9.23;62.10
46412;BME280;32113;42.012;24.870;2024-02-14T05:49:22;98830.19;;;9.21;61.02
46412;BME280;32113;42.012;24.870;2024-02-14T05:51:47;98831.06;;;9.20;60.51
46412;BME280;32113;42.012;24.870;2024-02-14T05:54:13;98830.13;;;9.30;60.97
46412;BME280;32113;42.012;24.870;2024-02-14T05:56:38;98838.69;;;9.28;59.91
46412;BME280;32113;42.012;24.870;2024-02-14T05:59:03;98844.53;;;9.42;59.84
46412;BME280;32113;42.012;24.870;2024-02-14T06:01:29;98843.66;;;9.43;59.17
46412;BME280;32113;42.012;24.870;2024-02-14T06:03:55;98845.38;;;9.44;58.82
46412;BME280;32113;42.012;24.870;2024-02-14T06:06:20;98842.75;;;9.48;58.70
46412;BME280;32113;42.012;24.870;2024-02-14T06:08:46;98849.72;;;9.35;59.17
46412;BME280;32113;42.012;24.870;2024-02-14T06:11:11;98848.94;;;9.26;59.30
46412;BME280;32113;42.012;24.870;2024-02-14T06:13:39;98854.91;;;9.25;59.00
46412;BME280;32113;42.012;24.870;2024-02-14T06:16:05;98855.69;;;9.35;59.06
46412;BME280;32113;42.012;24.870;2024-02-14T06:18:30;98868.38;;;9.51;58.26
46412;BME280;32113;42.012;24.870;2024-02-14T06:20:56;98865.81;;;9.48;58.15
46412;BME280;32113;42.012;24.870;2024-02-14T06:23:21;98867.56;;;9.41;57.67
46412;BME280;32113;42.012;24.870;2024-02-14T06:25:47;98862.44;;;9.44;57.69
46412;BME280;32113;42.012;24.870;2024-02-14T06:28:12;98880.38;;;9.42;57.09
46412;BME280;32113;42.012;24.870;2024-02-14T06:30:37;98877.81;;;9.44;57.65
46412;BME280;32113;42.012;24.870;2024-02-14T06:33:03;98883.69;;;9.54;57.14
46412;BME280;32113;42.012;24.870;2024-02-14T06:35:29;98875.09;;;9.63;56.39
46412;BME280;32113;42.012;24.870;2024-02-14T06:37:55;98882.06;;;9.46;56.34
46412;BME280;32113;42.012;24.870;2024-02-14T06:40:20;98890.59;;;9.45;56.85
46412;BME280;32113;42.012;24.870;2024-02-14T06:42:45;98887.19;;;9.42;56.55
46412;BME280;32113;42.012;24.870;2024-02-14T06:45:11;98880.38;;;9.39;56.95
46412;BME280;32113;42.012;24.870;2024-02-14T06:47:36;98898.34;;;9.36;57.09
46412;BME280;32113;42.012;24.870;2024-02-14T06:50:02;98888.84;;;9.51;57.12
46412;BME280;32113;42.012;24.870;2024-02-14T06:52:28;98894.84;;;9.50;56.58
46412;BME280;32113;42.012;24.870;2024-02-14T06:54:53;98901.56;;;9.62;56.87
46412;BME280;32113;42.012;24.870;2024-02-14T06:57:19;98899.75;;;9.70;55.95
46412;BME280;32113;42.012;24.870;2024-02-14T06:59:44;98904.88;;;9.71;56.22
46412;BME280;32113;42.012;24.870;2024-02-14T07:02:09;98900.53;;;9.80;56.21
46412;BME280;32113;42.012;24.870;2024-02-14T07:04:35;98907.34;;;9.84;55.25
46412;BME280;32113;42.012;24.870;2024-02-14T07:07:02;98913.19;;;9.97;56.07
46412;BME280;32113;42.012;24.870;2024-02-14T07:09:27;98920.88;;;9.94;55.50
46412;BME280;32113;42.012;24.870;2024-02-14T07:11:54;98915.06;;;9.79;55.01
46412;BME280;32113;42.012;24.870;2024-02-14T07:14:21;98917.59;;;9.82;55.17
46412;BME280;32113;42.012;24.870;2024-02-14T07:16:47;98916.63;;;9.93;54.29
46412;BME280;32113;42.012;24.870;2024-02-14T07:19:12;98923.59;;;9.81;54.71
46412;BME280;32113;42.012;24.870;2024-02-14T07:21:38;98931.28;;;9.78;55.48
46412;BME280;32113;42.012;24.870;2024-02-14T07:24:05;98933.84;;;9.83;55.42
46412;BME280;32113;42.012;24.870;2024-02-14T07:26:30;98931.91;;;10.02;55.10
46412;BME280;32113;42.012;24.870;2024-02-14T07:28:56;98937.03;;;10.07;55.70
46412;BME280;32113;42.012;24.870;2024-02-14T07:31:21;98941.25;;;10.11;55.26
46412;BME280;32113;42.012;24.870;2024-02-14T07:33:48;98946.38;;;10.11;55.39
46412;BME280;32113;42.012;24.870;2024-02-14T07:36:13;98949.06;;;9.95;55.01
46412;BME280;32113;42.012;24.870;2024-02-14T07:38:39;98961.03;;;9.96;54.93
46412;BME280;32113;42.012;24.870;2024-02-14T07:41:05;98962.69;;;10.02;54.96
46412;BME280;32113;42.012;24.870;2024-02-14T07:43:30;98961.06;;;9.95;55.06
46412;BME280;32113;42.012;24.870;2024-02-14T07:45:56;98958.41;;;10.06;56.02
46412;BME280;32113;42.012;24.870;2024-02-14T07:48:21;98973.63;;;10.18;55.29
46412;BME280;32113;42.012;24.870;2024-02-14T07:50:47;98977.16;;;10.08;55.67
46412;BME280;32113;42.012;24.870;2024-02-14T07:53:13;98979.75;;;10.03;55.89
46412;BME280;32113;42.012;24.870;2024-02-14T07:55:39;98979.66;;;10.14;55.74
46412;BME280;32113;42.012;24.870;2024-02-14T07:58:05;98979.53;;;10.27;55.39
46412;BME280;32113;42.012;24.870;2024-02-14T08:00:30;98976.13;;;10.26;54.96
46412;BME280;32113;42.012;24.870;2024-02-14T08:02:56;98975.25;;;10.29;54.86
46412;BME280;32113;42.012;24.870;2024-02-14T08:05:21;98988.03;;;10.33;55.09
46412;BME280;32113;42.012;24.870;2024-02-14T08:07:47;98994.94;;;10.28;55.56
46412;BME280;32113;42.012;24.870;2024-02-14T08:10:13;98994.94;;;10.27;55.59
46412;BME280;32113;42.012;24.870;2024-02-14T08:12:38;98996.63;;;10.26;55.83
46412;BME280;32113;42.012;24.870;2024-02-14T08:15:04;99003.41;;;10.36;55.72
46412;BME280;32113;42.012;24.870;2024-02-14T08:17:32;99003.25;;;10.50;54.96
46412;BME280;32113;42.012;24.870;2024-02-14T08:19:58;98997.28;;;10.50;54.48
46412;BME280;32113;42.012;24.870;2024-02-14T08:22:24;98999.88;;;10.48;54.23
46412;BME280;32113;42.012;24.870;2024-02-14T08:24:49;99001.72;;;10.32;54.70
46412;BME280;32113;42.012;24.870;2024-02-14T08:27:14;99011.00;;;10.43;54.98
46412;BME280;32113;42.012;24.870;2024-02-14T08:29:40;99008.31;;;10.58;54.70
46412;BME280;32113;42.012;24.870;2024-02-14T08:32:05;99003.25;;;10.54;54.37
46412;BME280;32113;42.012;24.870;2024-02-14T08:34:31;99012.72;;;10.47;54.70
46412;BME280;32113;42.012;24.870;2024-02-14T08:36:56;99007.63;;;10.44;54.58
46412;BME280;32113;42.012;24.870;2024-02-14T08:39:21;99020.50;;;10.34;54.55
46412;BME280;32113;42.012;24.870;2024-02-14T08:41:47;99020.56;;;10.27;54.06
46412;BME280;32113;42.012;24.870;2024-02-14T08:44:13;99021.56;;;10.11;54.94
46412;BME280;32113;42.012;24.870;2024-02-14T08:46:38;99024.16;;;10.08;54.68
46412;BME280;32113;42.012;24.870;2024-02-14T08:49:04;99017.38;;;10.03;54.32
46412;BME280;32113;42.012;24.870;2024-02-14T08:51:35;99025.13;;;9.95;53.91
46412;BME280;32113;42.012;24.870;2024-02-14T08:54:01;99029.38;;;9.96;54.09
46412;BME280;32113;42.012;24.870;2024-02-14T08:56:33;99025.13;;;9.93;54.61
46412;BME280;32113;42.012;24.870;2024-02-14T08:59:03;99035.38;;;9.96;54.46
46412;BME280;32113;42.012;24.870;2024-02-14T09:01:30;99033.63;;;10.00;54.51
46412;BME280;32113;42.012;24.870;2024-02-14T09:03:55;99037.91;;;9.99;54.08
46412;BME280;32113;42.012;24.870;2024-02-14T09:06:21;99036.94;;;10.13;54.27
46412;BME280;32113;42.012;24.870;2024-02-14T09:08:47;99045.44;;;10.18;54.72
46412;BME280;32113;42.012;24.870;2024-02-14T09:11:13;99045.50;;;10.12;53.27
46412;BME280;32113;42.012;24.870;2024-02-14T09:13:38;99041.28;;;10.03;53.82
46412;BME280;32113;42.012;24.870;2024-02-14T09:16:07;99046.31;;;10.17;54.92
46412;BME280;32113;42.012;24.870;2024-02-14T09:18:33;99054.81;;;10.19;53.38
46412;BME280;32113;42.012;24.870;2024-02-14T09:20:58;99049.69;;;10.19;54.15
46412;BME280;32113;42.012;24.870;2024-02-14T09:23:24;99041.81;;;10.38;54.27
46412;BME280;32113;42.012;24.870;2024-02-14T09:25:49;99046.97;;;10.38;54.17
46412;BME280;32113;42.012;24.870;2024-02-14T09:28:16;99049.50;;;10.43;54.32
46412;BME280;32113;42.012;24.870;2024-02-14T09:30:41;99054.56;;;10.54;56.20
46412;BME280;32113;42.012;24.870;2024-02-14T09:33:07;99056.38;;;10.37;55.88
46412;BME280;32113;42.012;24.870;2024-02-14T09:35:32;99053.84;;;10.33;55.83
46412;BME280;32113;42.012;24.870;2024-02-14T09:37:57;99058.09;;;10.35;56.87
46412;BME280;32113;42.012;24.870;2024-02-14T09:40:24;99057.25;;;10.35;58.44
46412;BME280;32113;42.012;24.870;2024-02-14T09:42:54;99049.50;;;10.44;58.45
46412;BME280;32113;42.012;24.870;2024-02-14T09:45:22;99052.97;;;10.37;59.49
46412;BME280;32113;42.012;24.870;2024-02-14T09:47:49;99061.63;;;10.25;58.31
46412;BME280;32113;42.012;24.870;2024-02-14T09:50:15;99059.03;;;10.27;58.01
46412;BME280;32113;42.012;24.870;2024-02-14T09:52:42;99052.28;;;10.16;57.51
46412;BME280;32113;42.012;24.870;2024-02-14T09:55:09;99058.25;;;10.18;58.62
46412;BME280;32113;42.012;24.870;2024-02-14T09:57:35;99052.22;;;10.25;58.62
46412;BME280;32113;42.012;24.870;2024-02-14T10:00:01;99060.72;;;10.28;57.75
46412;BME280;32113;42.012;24.870;2024-02-14T10:02:29;99063.44;;;10.12;57.39
46412;BME280;32113;42.012;24.870;2024-02-14T10:04:55;99057.50;;;10.07;58.53
46412;BME280;32113;42.012;24.870;2024-02-14T10:07:21;99054.06;;;10.08;57.72
46412;BME280;32113;42.012;24.870;2024-02-14T10:09:46;99054.88;;;10.16;57.17
46412;BME280;32113;42.012;24.870;2024-02-14T10:12:11;99060.00;;;10.16;58.04
46412;BME280;32113;42.012;24.870;2024-02-14T10:14:37;99050.69;;;10.06;57.16
46412;BME280;32113;42.012;24.870;2024-02-14T10:17:03;99057.50;;;10.08;58.38
46412;BME280;32113;42.012;24.870;2024-02-14T10:19:29;99059.09;;;10.20;58.39
46412;BME280;32113;42.012;24.870;2024-02-14T10:21:58;99057.41;;;10.18;56.33
46412;BME280;32113;42.012;24.870;2024-02-14T10:24:26;99053.25;;;10.06;57.36
46412;BME280;32113;42.012;24.870;2024-02-14T10:26:51;99060.09;;;10.01;57.35
46412;BME280;32113;42.012;24.870;2024-02-14T10:29:19;99048.16;;;9.98;56.87
46412;BME280;32113;42.012;24.870;2024-02-14T10:31:45;99060.91;;;10.07;57.37
46412;BME280;32113;42.012;24.870;2024-02-14T10:34:12;99049.75;;;10.15;57.72
46412;BME280;32113;42.012;24.870;2024-02-14T10:36:37;99048.88;;;10.12;57.26
46412;BME280;32113;42.012;24.870;2024-02-14T10:39:05;99044.63;;;10.13;56.53
46412;BME280;32113;42.012;24.870;2024-02-14T10:41:33;99042.16;;;10.01;56.61
46412;BME280;32113;42.012;24.870;2024-02-14T10:44:02;99049.75;;;10.15;56.77
46412;BME280;32113;42.012;24.870;2024-02-14T10:46:32;99047.19;;;10.11;56.18
46412;BME280;32113;42.012;24.870;2024-02-14T10:49:02;99037.72;;;10.23;55.80
46412;BME280;32113;42.012;24.870;2024-02-14T10:51:30;99041.13;;;10.22;56.04
46412;BME280;32113;42.012;24.870;2024-02-14T10:53:57;99036.78;;;10.29;55.80
46412;BME280;32113;42.012;24.870;2024-02-14T10:56:24;99038.44;;;10.37;54.84
46412;BME280;32113;42.012;24.870;2024-02-14T10:58:56;99030.81;;;10.28;55.21
46412;BME280;32113;42.012;24.870;2024-02-14T11:01:22;99029.13;;;10.27;55.34
46412;BME280;32113;42.012;24.870;2024-02-14T11:03:50;99038.47;;;10.33;55.53
46412;BME280;32113;42.012;24.870;2024-02-14T11:06:16;99035.94;;;10.30;55.05
46412;BME280;32113;42.012;24.870;2024-02-14T11:08:58;99037.72;;;10.23;54.77
46412;BME280;32113;42.012;24.870;2024-02-14T11:11:28;99036.03;;;10.17;54.67
46412;BME280;32113;42.012;24.870;2024-02-14T11:13:54;99035.31;;;10.06;54.76
46412;BME280;32113;42.012;24.870;2024-02-14T11:16:27;99038.59;;;10.19;55.45
46412;BME280;32113;42.012;24.870;2024-02-14T11:19:11;99035.91;;;10.33;55.18
46412;BME280;32113;42.012;24.870;2024-02-14T11:21:39;99030.84;;;10.25;54.85
46412;BME280;32113;42.012;24.870;2024-02-14T11:24:07;99029.06;;;10.32;54.63
46412;BME280;32113;42.012;24.870;2024-02-14T11:26:46;99026.50;;;10.30;54.76
46412;BME280;32113;42.012;24.870;2024-02-14T11:29:16;99023.94;;;10.35;54.58
46412;BME280;32113;42.012;24.870;2024-02-14T11:31:41;99039.22;;;10.43;53.95
46412;BME280;32113;42.012;24.870;2024-02-14T11:34:08;99037.53;;;10.42;53.69
46412;BME280;32113;42.012;24.870;2024-02-14T11:36:36;99034.94;;;10.43;53.92
46412;BME280;32113;42.012;24.870;2024-02-14T11:39:03;99038.22;;;10.59;54.00
46412;BME280;32113;42.012;24.870;2024-02-14T11:41:29;99034.91;;;10.51;54.30
46412;BME280;32113;42.012;24.870;2024-02-14T11:43:55;99042.53;;;10.57;54.46
46412;BME280;32113;42.012;24.870;2024-02-14T11:46:21;99036.53;;;10.57;54.09
46412;BME280;32113;42.012;24.870;2024-02-14T11:48:46;99035.72;;;10.55;53.68
46412;BME280;32113;42.012;24.870;2024-02-14T11:51:12;99028.13;;;10.45;53.79
46412;BME280;32113;42.012;24.870;2024-02-14T11:53:38;99025.47;;;10.51;54.09
46412;BME280;32113;42.012;24.870;2024-02-14T11:56:05;99032.38;;;10.45;54.23
46412;BME280;32113;42.012;24.870;2024-02-14T11:58:30;99023.91;;;10.36;53.66
46412;BME280;32113;42.012;24.870;2024-02-14T12:00:56;99039.25;;;10.38;53.96
46412;BME280;32113;42.012;24.870;2024-02-14T12:03:22;99032.38;;;10.43;53.51
46412;BME280;32113;42.012;24.870;2024-02-14T12:05:51;99022.09;;;10.49;53.96
46412;BME280;32113;42.012;24.870;2024-02-14T12:08:17;99039.97;;;10.57;53.60
46412;BME280;32113;42.012;24.870;2024-02-14T12:10:46;99028.81;;;10.61;53.41
46412;BME280;32113;42.012;24.870;2024-02-14T12:13:13;99029.59;;;10.68;52.96
46412;BME280;32113;42.012;24.870;2024-02-14T12:15:45;99023.50;;;10.75;52.82
46412;BME280;32113;42.012;24.870;2024-02-14T12:18:11;99023.34;;;10.91;53.42
46412;BME280;32113;42.012;24.870;2024-02-14T12:20:37;99023.19;;;11.03;52.87
46412;BME280;32113;42.012;24.870;2024-02-14T12:23:04;99013.75;;;11.06;53.17
46412;BME280;32113;42.012;24.870;2024-02-14T12:25:30;99020.38;;;11.21;52.57
46412;BME280;32113;42.012;24.870;2024-02-14T12:27:57;99023.16;;;11.07;52.88
46412;BME280;32113;42.012;24.870;2024-02-14T12:30:42;99012.63;;;11.27;52.12
46412;BME280;32113;42.012;24.870;2024-02-14T12:33:10;99024.47;;;11.36;51.87
46412;BME280;32113;42.012;24.870;2024-02-14T12:35:36;99023.59;;;11.37;51.35
46412;BME280;32113;42.012;24.870;2024-02-14T12:38:07;99023.72;;;11.27;51.56
46412;BME280;32113;42.012;24.870;2024-02-14T12:40:35;99026.34;;;11.26;50.83
46412;BME280;32113;42.012;24.870;2024-02-14T12:43:01;99012.63;;;11.25;51.60
46412;BME280;32113;42.012;24.870;2024-02-14T12:45:26;99018.72;;;11.18;51.11
46412;BME280;32113;42.012;24.870;2024-02-14T12:47:52;99021.47;;;11.04;50.99
46412;BME280;32113;42.012;24.870;2024-02-14T12:50:18;99021.44;;;11.07;50.52